createdAt,value
2023-03-06T00:00:38.941Z,91.47
2023-03-06T00:03:06.454Z,91.71
2023-03-06T00:05:33.035Z,91.40
2023-03-06T00:07:59.811Z,91.91
2023-03-06T00:10:29.148Z,91.63
2023-03-06T00:13:03.443Z,91.31
2023-03-06T00:15:30.796Z,91.55
2023-03-06T00:17:57.768Z,91.85
2023-03-06T00:20:25.930Z,92.06
2023-03-06T00:22:52.962Z,92.18
2023-03-06T00:25:21.644Z,92.25
2023-03-06T00:27:49.062Z,92.15
2023-03-06T00:30:18.782Z,92.52
2023-03-06T00:32:45.539Z,92.69
2023-03-06T00:35:12.687Z,92.80
2023-03-06T00:37:40.273Z,93.11
2023-03-06T00:40:09.740Z,93.47
2023-03-06T00:42:36.534Z,93.84
2023-03-06T00:45:03.839Z,93.85
2023-03-06T00:47:30.436Z,94.30
2023-03-06T00:49:56.969Z,94.25
2023-03-06T00:52:23.457Z,94.50
2023-03-06T00:54:50.202Z,94.70
2023-03-06T00:57:16.831Z,94.93
2023-03-06T00:59:43.557Z,95.36
2023-03-06T01:02:10.463Z,95.39
2023-03-06T01:04:37.262Z,95.45
2023-03-06T01:07:04.139Z,95.27
2023-03-06T01:09:30.711Z,95.88
2023-03-06T01:11:57.301Z,96.03
2023-03-06T01:14:24.409Z,96.16
2023-03-06T01:16:50.980Z,96.50
2023-03-06T01:19:17.951Z,96.42
2023-03-06T01:21:44.556Z,96.47
2023-03-06T01:24:11.381Z,96.43
2023-03-06T01:26:37.988Z,96.51
2023-03-06T01:29:04.669Z,96.60
2023-03-06T01:31:31.394Z,96.79
2023-03-06T01:33:58.000Z,97.02
2023-03-06T01:36:24.602Z,97.22
2023-03-06T01:38:51.216Z,97.20
2023-03-06T01:41:18.205Z,97.31
2023-03-06T01:43:47.237Z,97.59
2023-03-06T01:46:33.812Z,97.47
2023-03-06T01:49:08.968Z,97.39
2023-03-06T01:51:43.909Z,97.53
2023-03-06T01:54:21.605Z,97.59
2023-03-06T01:56:50.828Z,97.70
2023-03-06T01:59:18.537Z,97.88
2023-03-06T02:01:45.377Z,98.14
2023-03-06T02:04:12.642Z,98.20
2023-03-06T02:06:43.350Z,98.10
2023-03-06T02:09:11.943Z,98.66
2023-03-06T02:11:44.101Z,98.89
2023-03-06T02:14:17.229Z,98.89
2023-03-06T02:16:44.511Z,98.96
2023-03-06T02:19:31.013Z,99.35
2023-03-06T02:21:57.953Z,99.18
2023-03-06T02:24:36.451Z,99.57
2023-03-06T02:27:05.733Z,99.83
2023-03-06T02:29:32.875Z,99.84
2023-03-06T02:31:59.588Z,100.00
2023-03-06T02:34:26.288Z,100.00
2023-03-06T02:36:58.364Z,100.00
2023-03-06T02:39:29.625Z,100.00
2023-03-06T02:41:56.135Z,100.00
2023-03-06T02:44:24.377Z,100.00
2023-03-06T02:46:51.002Z,100.00
2023-03-06T02:49:17.578Z,100.00
2023-03-06T02:51:44.625Z,100.00
2023-03-06T02:54:11.383Z,100.00
2023-03-06T02:56:37.993Z,100.00
2023-03-06T02:59:04.597Z,100.00
2023-03-06T03:01:31.384Z,100.00
2023-03-06T03:03:58.032Z,100.00
2023-03-06T03:06:24.561Z,100.00
2023-03-06T03:08:51.072Z,100.00
2023-03-06T03:11:17.684Z,100.00
2023-03-06T03:13:45.402Z,100.00
2023-03-06T03:16:15.444Z,100.00
2023-03-06T03:18:44.713Z,100.00
2023-03-06T03:21:13.793Z,100.00
2023-03-06T03:23:40.921Z,100.00
2023-03-06T03:26:20.193Z,100.00
2023-03-06T03:28:46.910Z,100.00
2023-03-06T03:31:13.828Z,100.00
2023-03-06T03:33:41.615Z,100.00
2023-03-06T03:36:08.726Z,100.00
2023-03-06T03:38:35.387Z,100.00
2023-03-06T03:41:02.519Z,100.00
2023-03-06T03:43:29.268Z,100.00
2023-03-06T03:45:55.833Z,100.00
2023-03-06T03:48:22.547Z,100.00
2023-03-06T03:50:49.171Z,100.00
2023-03-06T03:53:15.921Z,100.00
2023-03-06T03:55:42.474Z,100.00
2023-03-06T03:58:09.092Z,100.00
2023-03-06T04:00:35.597Z,100.00
2023-03-06T04:03:02.200Z,100.00
2023-03-06T04:05:28.820Z,100.00
2023-03-06T04:07:55.419Z,100.00
2023-03-06T04:10:22.032Z,100.00
2023-03-06T04:12:48.738Z,100.00
2023-03-06T04:15:15.313Z,100.00
2023-03-06T04:17:41.936Z,100.00
2023-03-06T04:20:09.410Z,100.00
2023-03-06T04:22:36.042Z,100.00
2023-03-06T04:25:02.923Z,100.00
2023-03-06T04:27:29.412Z,100.00
2023-03-06T04:29:56.594Z,100.00
2023-03-06T04:32:24.048Z,100.00
2023-03-06T04:34:51.809Z,100.00
2023-03-06T04:37:24.134Z,100.00
2023-03-06T04:39:50.930Z,100.00
2023-03-06T04:42:18.657Z,100.00
2023-03-06T04:44:45.606Z,100.00
2023-03-06T04:47:12.715Z,100.00
2023-03-06T04:49:39.308Z,100.00
2023-03-06T04:52:06.210Z,100.00
2023-03-06T04:54:32.910Z,100.00
2023-03-06T04:56:59.611Z,100.00
2023-03-06T04:59:26.336Z,100.00
2023-03-06T05:01:53.344Z,100.00
2023-03-06T05:04:20.046Z,100.00
2023-03-06T05:06:46.749Z,100.00
2023-03-06T05:09:13.402Z,100.00
2023-03-06T05:11:39.998Z,100.00
2023-03-06T05:14:06.589Z,100.00
2023-03-06T05:16:33.270Z,100.00
2023-03-06T05:18:59.923Z,100.00
2023-03-06T05:21:26.637Z,100.00
2023-03-06T05:23:53.431Z,100.00
2023-03-06T05:26:20.041Z,100.00
2023-03-06T05:28:46.656Z,100.00
2023-03-06T05:31:13.290Z,100.00
2023-03-06T05:33:39.844Z,100.00
2023-03-06T05:36:09.112Z,100.00
2023-03-06T05:38:35.662Z,100.00
2023-03-06T05:41:02.223Z,100.00
2023-03-06T05:43:28.993Z,100.00
2023-03-06T05:46:06.638Z,100.00
2023-03-06T05:48:34.965Z,100.00
2023-03-06T05:51:02.535Z,100.00
2023-03-06T05:53:29.977Z,100.00
2023-03-06T05:56:05.671Z,100.00
2023-03-06T05:58:33.835Z,100.00
2023-03-06T06:01:00.733Z,100.00
2023-03-06T06:03:28.631Z,100.00
2023-03-06T06:05:55.198Z,100.00
2023-03-06T06:08:21.983Z,100.00
2023-03-06T06:10:49.637Z,100.00
2023-03-06T06:13:17.697Z,100.00
2023-03-06T06:15:44.233Z,100.00
2023-03-06T06:18:10.814Z,100.00
2023-03-06T06:20:38.170Z,100.00
2023-03-06T06:23:04.913Z,100.00
2023-03-06T06:25:31.925Z,100.00
2023-03-06T06:27:58.532Z,100.00
2023-03-06T06:30:25.302Z,100.00
2023-03-06T06:32:51.919Z,100.00
2023-03-06T06:35:18.516Z,100.00
2023-03-06T06:37:45.024Z,100.00
2023-03-06T06:40:11.998Z,100.00
2023-03-06T06:42:40.246Z,100.00
2023-03-06T06:45:09.124Z,100.00
2023-03-06T06:47:38.448Z,100.00
2023-03-06T06:50:05.584Z,100.00
2023-03-06T06:52:32.196Z,100.00
2023-03-06T06:54:58.785Z,100.00
2023-03-06T06:57:25.361Z,100.00
2023-03-06T06:59:53.905Z,100.00
2023-03-06T07:02:21.107Z,100.00
2023-03-06T07:05:02.353Z,100.00
2023-03-06T07:07:30.458Z,100.00
2023-03-06T07:09:57.069Z,100.00
2023-03-06T07:12:23.645Z,100.00
2023-03-06T07:14:50.392Z,100.00
2023-03-06T07:17:16.919Z,100.00
2023-03-06T07:19:43.467Z,100.00
2023-03-06T07:22:10.076Z,100.00
2023-03-06T07:24:36.605Z,100.00
2023-03-06T07:27:03.150Z,100.00
2023-03-06T07:29:29.720Z,100.00
2023-03-06T07:31:56.353Z,100.00
2023-03-06T07:34:23.153Z,100.00
2023-03-06T07:36:50.952Z,100.00
2023-03-06T07:39:18.117Z,100.00
2023-03-06T07:41:44.714Z,100.00
2023-03-06T07:44:11.403Z,100.00
2023-03-06T07:46:38.024Z,100.00
2023-03-06T07:49:04.625Z,100.00
2023-03-06T07:51:31.335Z,100.00
2023-03-06T07:53:57.837Z,100.00
2023-03-06T07:56:24.495Z,100.00
2023-03-06T07:58:51.060Z,100.00
2023-03-06T08:01:20.061Z,100.00
2023-03-06T08:03:47.721Z,99.96
2023-03-06T08:06:17.330Z,99.80
2023-03-06T08:08:45.839Z,99.03
2023-03-06T08:11:15.959Z,98.27
2023-03-06T08:13:43.405Z,97.58
2023-03-06T08:16:11.036Z,97.00
2023-03-06T08:18:40.979Z,96.31
2023-03-06T08:21:11.137Z,95.97
2023-03-06T08:23:38.684Z,95.73
2023-03-06T08:26:07.977Z,95.33
2023-03-06T08:28:34.900Z,94.71
2023-03-06T08:31:28.443Z,94.52
2023-03-06T08:33:57.379Z,94.04
2023-03-06T08:36:24.299Z,93.59
2023-03-06T08:38:51.151Z,92.44
2023-03-06T08:41:18.132Z,92.53
2023-03-06T08:43:44.699Z,91.98
2023-03-06T08:46:12.381Z,91.80
2023-03-06T08:48:39.256Z,91.18
2023-03-06T08:51:06.002Z,90.47
2023-03-06T08:53:43.104Z,89.90
2023-03-06T08:56:18.743Z,89.42
2023-03-06T08:58:45.630Z,88.68
2023-03-06T09:01:26.487Z,87.95
2023-03-06T09:03:59.258Z,87.89
2023-03-06T09:06:27.757Z,87.55
2023-03-06T09:08:54.578Z,87.24
2023-03-06T09:11:23.827Z,86.65
2023-03-06T09:13:51.198Z,86.56
2023-03-06T09:16:17.750Z,85.43
2023-03-06T09:18:44.327Z,85.03
2023-03-06T09:21:11.477Z,83.84
2023-03-06T09:23:39.551Z,82.79
2023-03-06T09:26:07.477Z,81.99
2023-03-06T09:28:39.340Z,81.51
2023-03-06T09:31:15.245Z,80.97
2023-03-06T09:33:43.068Z,80.92
2023-03-06T09:36:15.796Z,80.51
2023-03-06T09:38:42.339Z,81.09
2023-03-06T09:41:26.415Z,79.35
2023-03-06T09:44:01.589Z,79.77
2023-03-06T09:46:37.249Z,78.28
2023-03-06T09:49:15.214Z,77.84
2023-03-06T09:51:59.990Z,77.26
2023-03-06T09:54:44.447Z,77.02
2023-03-06T09:57:22.115Z,76.57
2023-03-06T09:59:52.986Z,76.70
2023-03-06T10:02:35.812Z,75.96
2023-03-06T10:05:06.908Z,75.28
2023-03-06T10:07:43.368Z,74.32
2023-03-06T10:10:23.238Z,73.15
2023-03-06T10:13:03.421Z,74.22
2023-03-06T10:15:36.107Z,73.37
2023-03-06T10:18:04.250Z,72.51
2023-03-06T10:21:04.755Z,71.02
2023-03-06T10:23:54.317Z,71.02
2023-03-06T10:26:26.656Z,69.06
2023-03-06T10:29:11.449Z,67.89
2023-03-06T10:31:44.643Z,67.28
2023-03-06T10:34:28.371Z,66.41
2023-03-06T10:36:54.921Z,66.65
2023-03-06T10:39:22.900Z,65.64
2023-03-06T10:41:50.022Z,65.50
2023-03-06T10:44:18.818Z,65.63
2023-03-06T10:46:48.883Z,65.36
2023-03-06T10:49:36.879Z,64.74
2023-03-06T10:52:21.539Z,65.03
2023-03-06T10:54:48.505Z,64.15
2023-03-06T10:57:32.505Z,63.59
2023-03-06T11:00:06.071Z,64.40
2023-03-06T11:02:39.442Z,63.38
2023-03-06T11:05:20.789Z,62.20
2023-03-06T11:08:01.748Z,61.48
2023-03-06T11:10:30.703Z,60.53
2023-03-06T11:12:58.573Z,57.98
2023-03-06T11:15:26.387Z,56.99
2023-03-06T11:18:22.175Z,58.36
2023-03-06T11:20:54.346Z,57.40
2023-03-06T11:23:42.013Z,56.24
2023-03-06T11:26:17.891Z,57.86
2023-03-06T11:28:44.331Z,57.79
2023-03-06T11:31:18.518Z,58.13
2023-03-06T11:33:56.298Z,57.88
2023-03-06T11:36:48.376Z,58.26
2023-03-06T11:39:39.063Z,57.76
2023-03-06T11:42:16.020Z,59.51
2023-03-06T11:44:54.999Z,59.02
2023-03-06T11:47:39.177Z,59.40
2023-03-06T11:50:31.182Z,59.51
2023-03-06T11:53:00.557Z,58.68
2023-03-06T11:55:40.542Z,59.10
2023-03-06T11:58:44.604Z,58.93
2023-03-06T12:01:44.891Z,59.19
2023-03-06T12:04:49.182Z,60.21
2023-03-06T12:07:40.519Z,60.86
2023-03-06T12:10:19.175Z,60.81
2023-03-06T12:12:51.654Z,61.10
2023-03-06T12:15:59.941Z,61.57
2023-03-06T12:18:48.134Z,62.06
2023-03-06T12:21:49.995Z,61.87
2023-03-06T12:24:49.618Z,62.54
2023-03-06T12:27:54.922Z,63.60
2023-03-06T12:30:48.801Z,64.34
2023-03-06T12:34:02.173Z,64.13
2023-03-06T12:36:50.351Z,63.47
2023-03-06T12:39:35.842Z,63.64
2023-03-06T12:42:11.301Z,63.37
2023-03-06T12:45:15.269Z,63.95
2023-03-06T12:47:47.148Z,63.61
2023-03-06T12:50:29.768Z,63.90
2023-03-06T12:53:01.142Z,65.26
2023-03-06T12:55:40.011Z,65.52
2023-03-06T12:58:45.303Z,65.91
2023-03-06T13:01:48.934Z,65.99
2023-03-06T13:04:54.622Z,65.52
2023-03-06T13:07:34.140Z,65.61
2023-03-06T13:10:09.132Z,66.22
2023-03-06T13:12:40.542Z,65.36
2023-03-06T13:15:43.546Z,65.49
2023-03-06T13:18:22.288Z,65.90
2023-03-06T13:20:49.344Z,65.77
2023-03-06T13:23:37.329Z,65.39
2023-03-06T13:26:05.058Z,65.85
2023-03-06T13:28:45.149Z,64.70
2023-03-06T13:31:28.087Z,63.90
2023-03-06T13:34:00.763Z,63.52
2023-03-06T13:36:37.629Z,63.99
2023-03-06T13:39:12.478Z,65.51
2023-03-06T13:41:58.794Z,65.85
2023-03-06T13:44:25.485Z,65.85
2023-03-06T13:47:01.552Z,65.99
2023-03-06T13:49:29.728Z,66.25
2023-03-06T13:52:10.635Z,66.50
2023-03-06T13:54:43.306Z,66.30
2023-03-06T13:57:46.940Z,66.88
2023-03-06T14:00:50.173Z,67.06
2023-03-06T14:03:51.449Z,67.69
2023-03-06T14:06:37.251Z,67.71
2023-03-06T14:09:15.622Z,68.00
2023-03-06T14:11:51.652Z,67.91
2023-03-06T14:14:26.775Z,66.85
2023-03-06T14:16:53.599Z,66.99
2023-03-06T14:19:20.368Z,67.49
2023-03-06T14:21:55.639Z,66.94
2023-03-06T14:24:34.011Z,65.70
2023-03-06T14:27:00.703Z,66.33
2023-03-06T14:29:29.639Z,66.79
2023-03-06T14:32:01.339Z,67.45
2023-03-06T14:34:40.097Z,68.12
2023-03-06T14:37:18.639Z,69.80
2023-03-06T14:39:45.608Z,71.46
2023-03-06T14:42:19.475Z,71.35
2023-03-06T14:44:48.200Z,71.32
2023-03-06T14:47:32.780Z,69.83
2023-03-06T14:50:25.469Z,67.63
2023-03-06T14:53:07.081Z,68.50
2023-03-06T14:55:36.034Z,69.23
2023-03-06T14:58:14.051Z,69.74
2023-03-06T15:00:45.159Z,70.90
2023-03-06T15:03:18.021Z,71.46
2023-03-06T15:05:47.061Z,71.11
2023-03-06T15:08:22.273Z,71.07
2023-03-06T15:11:00.614Z,71.70
2023-03-06T15:13:30.406Z,71.40
2023-03-06T15:16:06.426Z,71.07
2023-03-06T15:18:42.753Z,69.36
2023-03-06T15:21:21.561Z,68.50
2023-03-06T15:23:50.158Z,67.96
2023-03-06T15:26:36.722Z,68.18
2023-03-06T15:29:10.347Z,69.30
2023-03-06T15:31:39.632Z,69.59
2023-03-06T15:34:06.283Z,69.45
2023-03-06T15:36:35.240Z,69.86
2023-03-06T15:39:02.274Z,69.95
2023-03-06T15:41:35.706Z,69.10
2023-03-06T15:44:10.792Z,68.08
2023-03-06T15:46:37.438Z,67.79
2023-03-06T15:49:04.347Z,66.82
2023-03-06T15:51:32.643Z,67.18
2023-03-06T15:54:11.592Z,67.27
2023-03-06T15:56:41.716Z,68.13
2023-03-06T15:59:16.915Z,68.81
2023-03-06T16:01:43.774Z,69.49
2023-03-06T16:04:11.589Z,69.48
2023-03-06T16:06:38.295Z,69.88
2023-03-06T16:09:05.936Z,71.02
2023-03-06T16:11:43.267Z,72.48
2023-03-06T16:14:28.429Z,74.55
2023-03-06T16:16:55.415Z,75.90
2023-03-06T16:19:27.381Z,77.82
2023-03-06T16:21:55.646Z,79.24
2023-03-06T16:24:23.391Z,80.76
2023-03-06T16:26:51.791Z,82.08
2023-03-06T16:29:19.256Z,83.33
2023-03-06T16:31:45.843Z,84.82
2023-03-06T16:34:12.705Z,86.56
2023-03-06T16:36:39.632Z,87.86
2023-03-06T16:39:06.603Z,88.25
2023-03-06T16:41:33.183Z,88.95
2023-03-06T16:43:59.975Z,89.67
2023-03-06T16:46:26.531Z,89.94
2023-03-06T16:48:53.161Z,90.28
2023-03-06T16:51:22.356Z,90.90
2023-03-06T16:53:50.955Z,91.56
2023-03-06T16:56:19.473Z,91.98
2023-03-06T16:58:47.107Z,92.32
2023-03-06T17:01:19.238Z,92.61
2023-03-06T17:03:47.473Z,93.04
2023-03-06T17:06:19.449Z,93.42
2023-03-06T17:08:47.110Z,93.72
2023-03-06T17:11:14.120Z,93.86
2023-03-06T17:13:40.929Z,94.01
2023-03-06T17:16:11.620Z,94.24
2023-03-06T17:18:38.247Z,94.39
2023-03-06T17:21:04.994Z,94.79
2023-03-06T17:23:31.780Z,94.60
2023-03-06T17:26:06.991Z,94.97
2023-03-06T17:28:35.051Z,94.92
2023-03-06T17:31:03.326Z,94.95
2023-03-06T17:33:30.177Z,95.17
2023-03-06T17:36:01.188Z,95.26
2023-03-06T17:38:28.147Z,95.50
2023-03-06T17:40:54.767Z,95.71
2023-03-06T17:43:22.124Z,95.61
2023-03-06T17:45:48.726Z,96.01
2023-03-06T17:48:15.391Z,95.55
2023-03-06T17:50:42.051Z,95.82
2023-03-06T17:53:09.197Z,95.48
2023-03-06T17:55:38.596Z,94.99
2023-03-06T17:58:05.140Z,95.05
2023-03-06T18:00:31.759Z,94.44
2023-03-06T18:03:07.408Z,93.77
2023-03-06T18:05:35.091Z,93.66
2023-03-06T18:08:01.946Z,93.68
2023-03-06T18:10:28.454Z,93.74
2023-03-06T18:12:56.521Z,93.62
2023-03-06T18:15:23.413Z,93.43
2023-03-06T18:17:49.980Z,93.94
2023-03-06T18:20:16.761Z,93.64
2023-03-06T18:22:43.219Z,93.92
2023-03-06T18:25:10.029Z,93.98
2023-03-06T18:27:36.570Z,94.88
2023-03-06T18:30:03.731Z,95.24
2023-03-06T18:32:30.540Z,95.68
2023-03-06T18:34:57.186Z,95.67
2023-03-06T18:37:23.771Z,96.40
2023-03-06T18:39:50.402Z,96.84
2023-03-06T18:42:17.058Z,97.07
2023-03-06T18:44:47.720Z,96.90
2023-03-06T18:47:28.221Z,97.28
2023-03-06T18:49:55.731Z,97.47
2023-03-06T18:52:22.454Z,97.59
2023-03-06T18:54:50.485Z,97.98
2023-03-06T18:57:17.023Z,97.95
2023-03-06T18:59:43.749Z,98.13
2023-03-06T19:02:12.339Z,98.27
2023-03-06T19:04:39.443Z,98.19
2023-03-06T19:07:06.124Z,98.25
2023-03-06T19:09:32.882Z,98.51
2023-03-06T19:12:00.702Z,98.58
2023-03-06T19:14:28.680Z,98.81
2023-03-06T19:16:55.487Z,98.78
2023-03-06T19:19:26.315Z,99.27
2023-03-06T19:21:53.613Z,99.22
2023-03-06T19:24:21.123Z,99.67
2023-03-06T19:26:47.769Z,99.90
2023-03-06T19:29:14.412Z,99.84
2023-03-06T19:31:41.707Z,99.98
2023-03-06T19:34:08.601Z,99.96
2023-03-06T19:36:35.180Z,100.00
2023-03-06T19:39:04.272Z,100.00
2023-03-06T19:41:30.840Z,100.00
2023-03-06T19:43:59.980Z,100.00
2023-03-06T19:46:27.299Z,100.00
2023-03-06T19:49:09.667Z,100.00
2023-03-06T19:51:36.124Z,100.00
2023-03-06T19:54:03.791Z,100.00
2023-03-06T19:56:31.963Z,100.00
2023-03-06T19:58:58.551Z,100.00
2023-03-06T20:01:27.180Z,100.00
2023-03-06T20:03:58.786Z,100.00
2023-03-06T20:06:31.424Z,100.00
2023-03-06T20:08:58.112Z,100.00
2023-03-06T20:11:27.202Z,100.00
2023-03-06T20:13:54.147Z,100.00
2023-03-06T20:16:20.909Z,100.00
2023-03-06T20:18:47.463Z,100.00
2023-03-06T20:21:14.557Z,100.00
2023-03-06T20:23:41.541Z,100.00
2023-03-06T20:26:13.217Z,100.00
2023-03-06T20:28:41.276Z,100.00
2023-03-06T20:31:18.954Z,100.00
2023-03-06T20:33:47.273Z,100.00
2023-03-06T20:36:18.339Z,100.00
2023-03-06T20:38:45.440Z,100.00
2023-03-06T20:41:16.574Z,100.00
2023-03-06T20:43:43.261Z,100.00
2023-03-06T20:46:11.220Z,100.00
2023-03-06T20:48:38.124Z,100.00
2023-03-06T20:51:07.777Z,100.00
2023-03-06T20:53:35.219Z,100.00
2023-03-06T20:56:01.771Z,100.00
2023-03-06T20:58:30.247Z,100.00
2023-03-06T21:00:57.855Z,100.00
2023-03-06T21:03:24.889Z,100.00
2023-03-06T21:05:51.496Z,100.00
2023-03-06T21:08:18.077Z,100.00
2023-03-06T21:10:46.743Z,100.00
2023-03-06T21:13:14.444Z,100.00
2023-03-06T21:15:42.387Z,100.00
2023-03-06T21:18:10.318Z,100.00
2023-03-06T21:20:41.138Z,100.00
2023-03-06T21:23:08.048Z,100.00
2023-03-06T21:25:35.750Z,100.00
2023-03-06T21:28:02.370Z,100.00
2023-03-06T21:30:29.508Z,100.00
2023-03-06T21:32:56.412Z,100.00
2023-03-06T21:35:23.058Z,100.00
2023-03-06T21:37:49.612Z,100.00
2023-03-06T21:40:16.266Z,100.00
2023-03-06T21:42:42.773Z,100.00
2023-03-06T21:45:09.833Z,100.00
2023-03-06T21:47:38.884Z,100.00
2023-03-06T21:50:08.391Z,100.00
2023-03-06T21:52:35.022Z,100.00
2023-03-06T21:55:01.637Z,100.00
2023-03-06T21:57:28.148Z,100.00
2023-03-06T21:59:54.624Z,100.00
2023-03-06T22:02:21.977Z,100.00
2023-03-06T22:04:52.874Z,100.00
2023-03-06T22:07:20.215Z,100.00
2023-03-06T22:09:47.003Z,100.00
2023-03-06T22:12:13.519Z,100.00
2023-03-06T22:14:40.253Z,100.00
2023-03-06T22:17:06.852Z,100.00
2023-03-06T22:19:33.357Z,100.00
2023-03-06T22:21:59.955Z,100.00
2023-03-06T22:24:26.600Z,100.00
2023-03-06T22:26:53.231Z,100.00
2023-03-06T22:29:19.996Z,100.00
2023-03-06T22:31:46.784Z,100.00
2023-03-06T22:34:13.587Z,100.00
2023-03-06T22:36:40.110Z,100.00
2023-03-06T22:39:06.665Z,100.00
2023-03-06T22:41:33.418Z,100.00
2023-03-06T22:44:01.565Z,100.00
2023-03-06T22:46:28.164Z,100.00
2023-03-06T22:48:59.170Z,100.00
2023-03-06T22:51:27.060Z,100.00
2023-03-06T22:53:53.822Z,100.00
2023-03-06T22:56:21.859Z,100.00
2023-03-06T22:58:48.973Z,100.00
2023-03-06T23:01:21.088Z,100.00
2023-03-06T23:03:50.696Z,100.00
2023-03-06T23:06:20.070Z,100.00
2023-03-06T23:08:52.686Z,100.00
2023-03-06T23:11:20.770Z,100.00
2023-03-06T23:13:48.477Z,100.00
2023-03-06T23:16:15.118Z,100.00
2023-03-06T23:18:41.970Z,100.00
2023-03-06T23:21:14.760Z,100.00
2023-03-06T23:23:44.086Z,100.00
2023-03-06T23:26:15.946Z,100.00
2023-03-06T23:28:43.323Z,100.00
2023-03-06T23:31:12.639Z,100.00
2023-03-06T23:33:40.803Z,100.00
2023-03-06T23:36:10.247Z,100.00
2023-03-06T23:38:39.820Z,100.00
2023-03-06T23:41:09.135Z,100.00
2023-03-06T23:43:36.485Z,100.00
2023-03-06T23:46:03.573Z,100.00
2023-03-06T23:48:30.140Z,100.00
2023-03-06T23:50:57.217Z,100.00
2023-03-06T23:53:24.115Z,100.00
2023-03-06T23:55:51.443Z,100.00
2023-03-06T23:58:19.288Z,100.00
